GCLP/LPA METAR and TAF weather

Enter ICAO airport designator
Station Type Date Time Source
GCLP METAR 2021/09/16 11:00 UTC NOAA

GCLP 161100Z 02020KT 9999 FEW025 27/20 Q1020 TEMPO RA


Station Type Date Time Source
GCLP Decoded METAR 2021/09/16 11:00 UTC NOAA

Gran Canaria - Canary Islands, Spain (GCLP) 27-56N 015-23W 47M
Sep 16, 2021 - 07:00 AM EDT / 2021.09.16 1100 UTC
Wind: from the NNE (020 degrees) at 23 MPH (20 KT):0
Visibility: greater than 7 mile(s):0
Sky conditions: mostly clear
Temperature: 80 F (27 C)
Dew Point: 68 F (20 C)
Relative Humidity: 65%
Pressure (altimeter): 30.12 in. Hg (1020 hPa)
ob: GCLP 161100Z 02020KT 9999 FEW025 27/20 Q1020 TEMPO RA
cycle: 11

Station Type Date Time Source
GCLP TAF 2021/09/16 09:45 UTC NOAA

TAF GCLP 160800Z 1609/1709 01017KT 9999 SCT025 TX25/1614Z TN21/1706Z PROB30
TEMPO 1609/1612 RA

Example: see airport list